createdAt,value
2018-11-05T00:00:19.231Z,101161.37
2018-11-05T00:02:49.717Z,101157.33
2018-11-05T00:05:18.627Z,101151.18
2018-11-05T00:07:47.525Z,101150.67
2018-11-05T00:10:16.411Z,101149.14
2018-11-05T00:12:45.203Z,101147.14
2018-11-05T00:15:14.028Z,101147.30
2018-11-05T00:17:43.136Z,101139.45
2018-11-05T00:20:12.691Z,101145.13
2018-11-05T00:22:41.532Z,101135.95
2018-11-05T00:25:12.190Z,101129.43
2018-11-05T00:27:41.430Z,101116.70
2018-11-05T00:30:12.136Z,101115.06
2018-11-05T00:32:41.418Z,101115.06
2018-11-05T00:35:10.346Z,101119.57
2018-11-05T00:37:39.495Z,101116.90
2018-11-05T00:40:13.902Z,101111.55
2018-11-05T00:42:43.424Z,101105.20
2018-11-05T00:45:13.135Z,101104.17
2018-11-05T00:47:42.636Z,101096.69
2018-11-05T00:50:13.093Z,101099.36
2018-11-05T00:52:41.961Z,101107.71
2018-11-05T00:55:11.548Z,101105.75
2018-11-05T00:57:40.471Z,101108.92
2018-11-05T01:00:12.115Z,101102.38
2018-11-05T01:02:41.610Z,101113.05
2018-11-05T01:05:11.915Z,101104.55
2018-11-05T01:07:41.371Z,101102.07
2018-11-05T01:10:11.286Z,101102.23
2018-11-05T01:12:40.280Z,101106.58
2018-11-05T01:15:11.941Z,101091.72
2018-11-05T01:17:40.903Z,101097.19
2018-11-05T01:20:11.156Z,101089.54
2018-11-05T01:22:40.146Z,101096.39
2018-11-05T01:25:09.068Z,101092.52
2018-11-05T01:27:37.925Z,101097.36
2018-11-05T01:30:08.758Z,101103.37
2018-11-05T01:32:37.672Z,101104.20
2018-11-05T01:35:07.614Z,101106.08
2018-11-05T01:37:36.494Z,101109.75
2018-11-05T01:40:07.300Z,101100.86
2018-11-05T01:42:36.348Z,101102.99
2018-11-05T01:45:06.545Z,101096.98
2018-11-05T01:47:35.381Z,101087.50
2018-11-05T01:50:04.273Z,101084.99
2018-11-05T01:52:33.085Z,101091.34
2018-11-05T01:55:02.198Z,101084.20
2018-11-05T01:57:31.080Z,101083.49
2018-11-05T02:00:00.067Z,101081.95
2018-11-05T02:02:29.055Z,101077.64
2018-11-05T02:05:04.461Z,101080.31
2018-11-05T02:07:33.357Z,101072.47
2018-11-05T02:10:02.502Z,101067.12
2018-11-05T02:12:31.708Z,101074.77
2018-11-05T02:15:00.821Z,101068.91
2018-11-05T02:17:29.842Z,101067.23
2018-11-05T02:19:58.647Z,101062.90
2018-11-05T02:22:27.563Z,101059.55
2018-11-05T02:24:56.427Z,101045.85
2018-11-05T02:27:25.406Z,101040.80
2018-11-05T02:29:54.566Z,101041.80
2018-11-05T02:32:23.440Z,101044.47
2018-11-05T02:34:52.662Z,101046.14
2018-11-05T02:37:21.858Z,101047.17
2018-11-05T02:39:50.661Z,101044.49
2018-11-05T02:42:19.611Z,101045.16
2018-11-05T02:44:48.738Z,101052.47
2018-11-05T02:47:23.773Z,101046.80
2018-11-05T02:49:52.722Z,101049.16
2018-11-05T02:52:21.914Z,101051.16
2018-11-05T02:54:50.836Z,101051.48
2018-11-05T02:57:19.734Z,101055.16
2018-11-05T02:59:48.612Z,101066.23
2018-11-05T03:02:17.604Z,101056.55
2018-11-05T03:04:46.446Z,101052.20
2018-11-05T03:07:15.332Z,101062.06
2018-11-05T03:09:44.187Z,101058.72
2018-11-05T03:12:13.113Z,101061.06
2018-11-05T03:14:41.928Z,101060.39
2018-11-05T03:17:10.780Z,101060.52
2018-11-05T03:19:39.680Z,101060.52
2018-11-05T03:22:08.515Z,101062.18
2018-11-05T03:24:37.411Z,101057.20
2018-11-05T03:27:06.654Z,101058.17
2018-11-05T03:29:35.763Z,101061.56
2018-11-05T03:32:04.666Z,101059.56
2018-11-05T03:34:33.503Z,101054.53
2018-11-05T03:37:02.410Z,101058.89
2018-11-05T03:39:31.568Z,101052.55
2018-11-05T03:42:00.424Z,101051.54
2018-11-05T03:44:29.263Z,101051.53
2018-11-05T03:46:58.066Z,101054.05
2018-11-05T03:49:26.935Z,101057.16
2018-11-05T03:51:56.110Z,101055.00
2018-11-05T03:54:24.987Z,101052.82
2018-11-05T03:56:54.214Z,101045.13
2018-11-05T03:59:23.021Z,101032.83
2018-11-05T04:01:51.959Z,101039.02
2018-11-05T04:04:20.865Z,101030.48
2018-11-05T04:06:49.703Z,101033.66
2018-11-05T04:09:18.961Z,101021.47
2018-11-05T04:11:48.105Z,101020.79
2018-11-05T04:14:16.909Z,101020.12
2018-11-05T04:16:46.141Z,101011.39
2018-11-05T04:19:15.027Z,101008.91
2018-11-05T04:21:44.945Z,101007.71
2018-11-05T04:24:15.048Z,101002.20
2018-11-05T04:26:45.138Z,101005.54
2018-11-05T04:29:14.545Z,101009.59
2018-11-05T04:31:43.720Z,101007.59
2018-11-05T04:34:12.578Z,101001.92
2018-11-05T04:36:41.748Z,101005.09
2018-11-05T04:39:15.548Z,101006.09
2018-11-05T04:41:44.984Z,100991.89
2018-11-05T04:44:13.866Z,100986.70
2018-11-05T04:46:42.850Z,100977.64
2018-11-05T04:49:11.691Z,100985.55
2018-11-05T04:51:40.497Z,100986.38
2018-11-05T04:54:09.557Z,100989.06
2018-11-05T04:56:38.351Z,100987.06
2018-11-05T04:59:07.922Z,100988.61
2018-11-05T05:01:36.853Z,100992.41
2018-11-05T05:04:05.726Z,100995.78
2018-11-05T05:06:34.741Z,100997.64
2018-11-05T05:09:03.769Z,101002.14
2018-11-05T05:11:32.988Z,101010.00
2018-11-05T05:14:01.883Z,101011.49
2018-11-05T05:16:31.038Z,101005.64
2018-11-05T05:19:00.245Z,101006.86
2018-11-05T05:21:28.993Z,101003.36
2018-11-05T05:23:57.822Z,101005.03
2018-11-05T05:26:26.879Z,101001.77
2018-11-05T05:28:55.745Z,100993.78
2018-11-05T05:31:24.794Z,101004.02
2018-11-05T05:33:53.627Z,101002.15
2018-11-05T05:36:22.505Z,100999.13
2018-11-05T05:38:51.451Z,100994.97
2018-11-05T05:41:20.665Z,100993.17
2018-11-05T05:43:49.463Z,100990.50
2018-11-05T05:46:18.642Z,100991.33
2018-11-05T05:48:47.487Z,100985.11
2018-11-05T05:51:16.847Z,100983.81
2018-11-05T05:53:46.037Z,100977.64
2018-11-05T05:56:14.900Z,100975.97
2018-11-05T05:58:43.796Z,100979.81
2018-11-05T06:01:12.747Z,100982.81
2018-11-05T06:03:41.942Z,100994.66
2018-11-05T06:06:10.895Z,100996.13
2018-11-05T06:08:39.915Z,100992.45
2018-11-05T06:11:08.702Z,100994.80
2018-11-05T06:13:37.510Z,100995.30
2018-11-05T06:16:06.692Z,100994.84
2018-11-05T06:18:36.069Z,100998.52
2018-11-05T06:21:04.953Z,100994.50
2018-11-05T06:23:33.799Z,101002.19
2018-11-05T06:26:02.955Z,101008.88
2018-11-05T06:28:31.969Z,101008.70
2018-11-05T06:31:00.742Z,101017.22
2018-11-05T06:33:29.536Z,101023.03
2018-11-05T06:35:58.832Z,101028.20
2018-11-05T06:38:27.666Z,101027.58
2018-11-05T06:40:56.544Z,101019.06
2018-11-05T06:43:25.369Z,101014.55
2018-11-05T06:45:54.519Z,101019.39
2018-11-05T06:48:23.462Z,101012.83
2018-11-05T06:50:52.299Z,101012.16
2018-11-05T06:53:21.345Z,101012.34
2018-11-05T06:55:50.250Z,101009.16
2018-11-05T06:58:19.152Z,101007.31
2018-11-05T07:00:48.052Z,101004.81
2018-11-05T07:03:17.256Z,101007.66
2018-11-05T07:05:46.713Z,101014.50
2018-11-05T07:08:15.817Z,101014.71
2018-11-05T07:10:45.074Z,101014.00
2018-11-05T07:13:13.865Z,101020.19
2018-11-05T07:15:42.715Z,101017.17
2018-11-05T07:18:11.649Z,101022.84
2018-11-05T07:20:40.464Z,101027.48
2018-11-05T07:23:09.421Z,101029.81
2018-11-05T07:25:38.321Z,101037.81
2018-11-05T07:28:07.256Z,101044.17
2018-11-05T07:30:36.404Z,101039.79
2018-11-05T07:33:05.917Z,101038.16
2018-11-05T07:35:34.771Z,101031.15
2018-11-05T07:38:03.771Z,101036.16
2018-11-05T07:40:32.583Z,101028.48
2018-11-05T07:43:01.469Z,101035.82
2018-11-05T07:45:30.333Z,101027.43
2018-11-05T07:47:59.197Z,101035.62
2018-11-05T07:50:28.318Z,101028.12
2018-11-05T07:52:57.555Z,101030.56
2018-11-05T07:55:26.751Z,101017.98
2018-11-05T07:57:55.558Z,101017.98
2018-11-05T08:00:29.502Z,101010.63
2018-11-05T08:02:58.628Z,101013.80
2018-11-05T08:05:27.452Z,101012.70
2018-11-05T08:07:56.304Z,101009.52
2018-11-05T08:10:25.073Z,101014.53
2018-11-05T08:12:53.867Z,101014.02
2018-11-05T08:15:24.783Z,101014.52
2018-11-05T08:17:54.244Z,101017.63
2018-11-05T08:20:23.060Z,101013.24
2018-11-05T08:22:51.993Z,101017.69
2018-11-05T08:25:20.808Z,101005.53
2018-11-05T08:27:49.708Z,101011.48
2018-11-05T08:30:20.741Z,101012.33
2018-11-05T08:32:49.589Z,101013.44
2018-11-05T08:35:18.721Z,101004.33
2018-11-05T08:37:48.459Z,101003.18
2018-11-05T08:40:19.436Z,101001.20
2018-11-05T08:42:49.470Z,100994.33
2018-11-05T08:45:19.591Z,100996.91
2018-11-05T08:47:48.889Z,100990.75
2018-11-05T08:50:19.086Z,100999.68
2018-11-05T08:52:47.963Z,101006.05
2018-11-05T08:55:18.163Z,101012.49
2018-11-05T08:57:47.262Z,101010.20
2018-11-05T09:00:22.313Z,101005.53
2018-11-05T09:02:52.039Z,101006.45
2018-11-05T09:05:22.272Z,101009.46
2018-11-05T09:07:52.206Z,101009.53
2018-11-05T09:10:21.506Z,100995.91
2018-11-05T09:12:50.514Z,100996.16
2018-11-05T09:15:20.517Z,101008.20
2018-11-05T09:17:49.597Z,101001.59
2018-11-05T09:20:19.167Z,101006.92
2018-11-05T09:22:48.791Z,101005.78
2018-11-05T09:25:17.942Z,101001.38
2018-11-05T09:27:46.951Z,101003.10
2018-11-05T09:30:17.436Z,100996.50
2018-11-05T09:32:47.061Z,100995.75
2018-11-05T09:35:16.194Z,101005.22
2018-11-05T09:37:45.123Z,100996.14
2018-11-05T09:40:18.155Z,101001.08
2018-11-05T09:42:48.173Z,101000.13
2018-11-05T09:45:20.925Z,100989.80
2018-11-05T09:47:50.602Z,100982.22
2018-11-05T09:50:20.054Z,100987.72
2018-11-05T09:52:48.974Z,100982.70
2018-11-05T09:55:17.939Z,100983.03
2018-11-05T09:57:46.962Z,100988.97
2018-11-05T10:00:18.839Z,100987.16
2018-11-05T10:02:53.281Z,100983.95
2018-11-05T10:05:22.321Z,100986.34
2018-11-05T10:07:51.693Z,100973.55
2018-11-05T10:10:20.882Z,100983.58
2018-11-05T10:12:49.957Z,100978.12
2018-11-05T10:15:19.613Z,100978.95
2018-11-05T10:17:48.527Z,100970.54
2018-11-05T10:20:22.564Z,100967.73
2018-11-05T10:22:51.458Z,100964.05
2018-11-05T10:25:21.019Z,100965.43
2018-11-05T10:27:51.107Z,100961.28
2018-11-05T10:30:21.458Z,100963.02
2018-11-05T10:32:50.814Z,100961.36
2018-11-05T10:35:19.960Z,100961.59
2018-11-05T10:37:48.804Z,100959.75
2018-11-05T10:40:19.473Z,100950.07
2018-11-05T10:42:49.119Z,100947.81
2018-11-05T10:45:18.821Z,100948.33
2018-11-05T10:47:47.741Z,100942.03
2018-11-05T10:50:17.727Z,100932.83
2018-11-05T10:52:48.847Z,100920.17
2018-11-05T10:55:18.125Z,100930.48
2018-11-05T10:57:47.394Z,100920.58
2018-11-05T11:00:22.688Z,100924.75
2018-11-05T11:02:56.742Z,100918.19
2018-11-05T11:05:26.296Z,100915.45
2018-11-05T11:07:56.310Z,100917.11
2018-11-05T11:10:25.991Z,100920.73
2018-11-05T11:12:54.849Z,100919.23
2018-11-05T11:15:23.930Z,100922.69
2018-11-05T11:17:53.274Z,100925.05
2018-11-05T11:20:22.188Z,100913.72
2018-11-05T11:22:51.012Z,100907.55
2018-11-05T11:25:19.971Z,100899.66
2018-11-05T11:27:49.198Z,100893.23
2018-11-05T11:30:18.399Z,100889.95
2018-11-05T11:32:47.964Z,100886.17
2018-11-05T11:35:17.148Z,100884.89
2018-11-05T11:37:46.009Z,100876.86
2018-11-05T11:40:17.262Z,100879.69
2018-11-05T11:42:47.590Z,100867.05
2018-11-05T11:45:17.545Z,100863.02
2018-11-05T11:47:46.918Z,100856.41
2018-11-05T11:50:17.676Z,100849.69
2018-11-05T11:52:46.639Z,100846.88
2018-11-05T11:55:17.855Z,100845.66
2018-11-05T11:57:46.796Z,100827.72
2018-11-05T12:00:23.183Z,100834.64
2018-11-05T12:02:52.732Z,100831.97
2018-11-05T12:05:21.760Z,100823.33
2018-11-05T12:07:50.541Z,100818.80
2018-11-05T12:10:22.580Z,100814.98
2018-11-05T12:12:51.434Z,100816.75
2018-11-05T12:15:21.248Z,100815.94
2018-11-05T12:17:51.415Z,100817.59
2018-11-05T12:20:21.848Z,100813.76
2018-11-05T12:22:51.283Z,100814.39
2018-11-05T12:25:20.846Z,100805.93
2018-11-05T12:27:49.616Z,100811.70
2018-11-05T12:30:20.121Z,100811.50
2018-11-05T12:32:49.758Z,100801.38
2018-11-05T12:35:18.720Z,100804.27
2018-11-05T12:37:48.820Z,100803.64
2018-11-05T12:40:18.880Z,100810.67
2018-11-05T12:42:48.836Z,100809.02
2018-11-05T12:45:18.097Z,100811.70
2018-11-05T12:47:47.033Z,100806.83
2018-11-05T12:50:21.134Z,100804.66
2018-11-05T12:52:51.435Z,100801.97
2018-11-05T12:55:20.220Z,100797.82
2018-11-05T12:57:49.727Z,100794.93
2018-11-05T13:00:25.924Z,100786.23
2018-11-05T13:02:55.858Z,100795.20
2018-11-05T13:05:25.815Z,100792.63
2018-11-05T13:07:54.723Z,100796.66
2018-11-05T13:10:23.753Z,100791.92
2018-11-05T13:12:53.089Z,100776.41
2018-11-05T13:15:22.116Z,100770.52
2018-11-05T13:17:51.084Z,100754.09
2018-11-05T13:20:21.826Z,100757.20
2018-11-05T13:22:50.792Z,100750.81
2018-11-05T13:25:19.591Z,100758.16
2018-11-05T13:27:55.007Z,100767.33
2018-11-05T13:30:26.843Z,100758.04
2018-11-05T13:32:55.811Z,100759.70
2018-11-05T13:35:25.149Z,100759.70
2018-11-05T13:37:54.731Z,100757.84
2018-11-05T13:40:23.671Z,100754.01
2018-11-05T13:42:53.049Z,100750.89
2018-11-05T13:45:22.999Z,100753.89
2018-11-05T13:47:53.169Z,100752.98
2018-11-05T13:50:21.328Z,100750.49
2018-11-05T13:52:49.958Z,100743.98
2018-11-05T13:55:18.924Z,100746.45
2018-11-05T13:57:48.731Z,100748.90
2018-11-05T14:00:19.794Z,100750.23
2018-11-05T14:02:48.888Z,100749.52
2018-11-05T14:05:17.745Z,100744.41
2018-11-05T14:07:46.888Z,100742.88
2018-11-05T14:10:18.496Z,100741.09
2018-11-05T14:12:48.208Z,100747.08
2018-11-05T14:15:17.345Z,100745.11
2018-11-05T14:17:46.448Z,100744.16
2018-11-05T14:20:16.417Z,100739.21
2018-11-05T14:22:45.321Z,100738.89
2018-11-05T14:25:16.813Z,100744.35
2018-11-05T14:27:47.135Z,100747.97
2018-11-05T14:30:16.236Z,100737.94
2018-11-05T14:32:46.273Z,100733.28
2018-11-05T14:35:15.486Z,100731.14
2018-11-05T14:37:44.434Z,100729.16
2018-11-05T14:40:14.718Z,100730.39
2018-11-05T14:42:43.695Z,100730.80
2018-11-05T14:45:15.005Z,100726.66
2018-11-05T14:47:44.846Z,100730.88
2018-11-05T14:50:15.563Z,100729.73
2018-11-05T14:52:44.430Z,100731.27
2018-11-05T14:55:15.162Z,100719.92
2018-11-05T14:57:44.884Z,100716.30
2018-11-05T15:00:18.911Z,100719.69
2018-11-05T15:02:48.569Z,100722.78
2018-11-05T15:05:17.696Z,100719.34
2018-11-05T15:07:47.365Z,100710.56
2018-11-05T15:10:17.616Z,100709.32
2018-11-05T15:12:46.462Z,100705.17
2018-11-05T15:15:15.826Z,100696.81
2018-11-05T15:17:45.111Z,100692.06
2018-11-05T15:20:16.876Z,100692.45
2018-11-05T15:22:45.500Z,100688.84
2018-11-05T15:25:14.730Z,100691.52
2018-11-05T15:27:43.596Z,100699.31
2018-11-05T15:30:15.755Z,100693.86
2018-11-05T15:32:45.005Z,100688.56
2018-11-05T15:35:14.053Z,100691.94
2018-11-05T15:37:43.394Z,100698.23
2018-11-05T15:40:14.301Z,100702.31
2018-11-05T15:42:43.172Z,100708.78
2018-11-05T15:45:13.424Z,100706.20
2018-11-05T15:47:42.724Z,100714.61
2018-11-05T15:50:14.240Z,100711.80
2018-11-05T15:52:43.407Z,100708.70
2018-11-05T15:55:12.566Z,100707.37
2018-11-05T15:57:41.800Z,100706.26
2018-11-05T16:00:17.694Z,100704.69
2018-11-05T16:02:48.827Z,100706.67
2018-11-05T16:05:17.769Z,100701.91
2018-11-05T16:07:46.943Z,100699.23
2018-11-05T16:10:15.986Z,100693.88
2018-11-05T16:12:44.885Z,100689.86
2018-11-05T16:15:14.131Z,100696.56
2018-11-05T16:17:43.187Z,100693.56
2018-11-05T16:20:13.993Z,100685.10
2018-11-05T16:22:43.293Z,100681.97
2018-11-05T16:25:12.267Z,100683.72
2018-11-05T16:27:41.376Z,100680.72
2018-11-05T16:30:12.515Z,100678.90
2018-11-05T16:32:41.982Z,100680.97
2018-11-05T16:35:10.925Z,100680.14
2018-11-05T16:37:39.996Z,100682.18
2018-11-05T16:40:13.255Z,100680.52
2018-11-05T16:42:42.827Z,100683.90
2018-11-05T16:45:11.998Z,100684.73
2018-11-05T16:47:41.586Z,100678.54
2018-11-05T16:50:14.728Z,100679.08
2018-11-05T16:52:43.558Z,100678.13
2018-11-05T16:55:13.848Z,100677.30
2018-11-05T16:57:43.329Z,100672.31
2018-11-05T17:00:12.636Z,100683.02
2018-11-05T17:02:42.124Z,100675.82
2018-11-05T17:05:10.968Z,100681.30
2018-11-05T17:07:40.114Z,100679.33
2018-11-05T17:10:10.745Z,100676.87
2018-11-05T17:12:39.747Z,100679.00
2018-11-05T17:15:10.578Z,100687.04
2018-11-05T17:17:39.841Z,100689.21
2018-11-05T17:20:10.935Z,100688.38
2018-11-05T17:22:40.254Z,100692.48
2018-11-05T17:25:09.693Z,100690.83
2018-11-05T17:27:38.689Z,100683.43
2018-11-05T17:30:10.417Z,100685.79
2018-11-05T17:32:39.374Z,100682.47
2018-11-05T17:35:08.190Z,100688.84
2018-11-05T17:37:37.157Z,100685.88
2018-11-05T17:40:07.600Z,100677.89
2018-11-05T17:42:36.728Z,100681.53
2018-11-05T17:45:06.982Z,100680.20
2018-11-05T17:47:35.963Z,100672.86
2018-11-05T17:50:05.134Z,100676.05
2018-11-05T17:52:34.151Z,100677.58
2018-11-05T17:55:03.077Z,100681.91
2018-11-05T17:57:32.711Z,100678.86
2018-11-05T18:00:01.601Z,100679.69
2018-11-05T18:02:30.593Z,100679.47
2018-11-05T18:04:59.513Z,100688.47
2018-11-05T18:07:29.095Z,100688.66
2018-11-05T18:09:58.000Z,100687.77
2018-11-05T18:12:27.151Z,100682.15
2018-11-05T18:14:56.196Z,100687.22
2018-11-05T18:17:25.066Z,100678.86
2018-11-05T18:19:54.185Z,100679.37
2018-11-05T18:22:23.238Z,100677.89
2018-11-05T18:24:52.203Z,100675.45
2018-11-05T18:27:21.440Z,100671.84
2018-11-05T18:29:50.566Z,100669.55
2018-11-05T18:32:21.605Z,100673.88
2018-11-05T18:34:52.145Z,100666.87
2018-11-05T18:37:21.588Z,100668.15
2018-11-05T18:39:50.745Z,100665.20
2018-11-05T18:42:19.612Z,100659.98
2018-11-05T18:44:48.402Z,100663.41
2018-11-05T18:47:17.571Z,100660.30
2018-11-05T18:49:46.880Z,100657.17
2018-11-05T18:52:15.381Z,100658.51
2018-11-05T18:54:44.501Z,100659.53
2018-11-05T18:57:13.507Z,100655.51
2018-11-05T18:59:42.610Z,100651.31
2018-11-05T19:02:15.635Z,100646.55
2018-11-05T19:04:44.822Z,100643.92
2018-11-05T19:07:13.750Z,100649.50
2018-11-05T19:09:42.858Z,100643.69
2018-11-05T19:12:11.836Z,100639.54
2018-11-05T19:14:40.685Z,100646.05
2018-11-05T19:17:09.622Z,100642.35
2018-11-05T19:19:38.605Z,100644.28
2018-11-05T19:22:07.702Z,100641.16
2018-11-05T19:24:37.210Z,100639.12
2018-11-05T19:27:06.583Z,100641.84
2018-11-05T19:29:35.583Z,100640.00
2018-11-05T19:32:04.548Z,100634.22
2018-11-05T19:34:33.539Z,100637.09
2018-11-05T19:37:03.135Z,100636.25
2018-11-05T19:39:32.491Z,100634.41
2018-11-05T19:42:01.737Z,100646.13
2018-11-05T19:44:30.915Z,100640.68
2018-11-05T19:46:59.918Z,100645.70
2018-11-05T19:49:29.178Z,100648.57
2018-11-05T19:51:58.327Z,100645.76
2018-11-05T19:54:27.687Z,100648.62
2018-11-05T19:56:56.565Z,100655.02
2018-11-05T19:59:26.585Z,100661.39
2018-11-05T20:01:55.661Z,100659.91
2018-11-05T20:04:24.464Z,100655.06
2018-11-05T20:06:53.411Z,100653.22
2018-11-05T20:09:24.317Z,100655.90
2018-11-05T20:11:53.533Z,100652.26
2018-11-05T20:14:22.503Z,100650.55
2018-11-05T20:16:51.447Z,100651.96
2018-11-05T20:19:20.516Z,100645.32
2018-11-05T20:21:49.259Z,100651.69
2018-11-05T20:24:18.464Z,100650.75
2018-11-05T20:26:47.659Z,100651.95
2018-11-05T20:29:16.597Z,100650.30
2018-11-05T20:31:46.028Z,100649.14
2018-11-05T20:34:14.894Z,100645.63
2018-11-05T20:36:43.569Z,100644.19
2018-11-05T20:39:12.880Z,100642.20
2018-11-05T20:41:42.019Z,100644.23
2018-11-05T20:44:10.978Z,100648.64
2018-11-05T20:46:40.266Z,100647.49
2018-11-05T20:49:09.162Z,100648.00
2018-11-05T20:51:38.002Z,100641.50
2018-11-05T20:54:07.671Z,100640.66
2018-11-05T20:56:36.555Z,100632.64
2018-11-05T20:59:05.484Z,100636.98
2018-11-05T21:01:34.390Z,100639.79
2018-11-05T21:04:03.645Z,100639.10
2018-11-05T21:06:33.048Z,100634.58
2018-11-05T21:09:02.420Z,100627.06
2018-11-05T21:11:32.822Z,100621.76
2018-11-05T21:14:02.173Z,100624.25
2018-11-05T21:16:31.111Z,100623.09
2018-11-05T21:19:00.715Z,100620.61
2018-11-05T21:21:29.756Z,100625.02
2018-11-05T21:23:58.574Z,100619.99
2018-11-05T21:26:28.409Z,100627.30
2018-11-05T21:28:58.044Z,100623.61
2018-11-05T21:31:26.929Z,100616.86
2018-11-05T21:36:25.125Z,100621.70
2018-11-05T21:38:55.088Z,100616.16
2018-11-05T21:41:24.004Z,100614.50
2018-11-05T21:43:53.319Z,100615.34
2018-11-05T21:46:22.701Z,100615.70
2018-11-05T21:48:51.946Z,100615.38
2018-11-05T21:51:21.437Z,100616.53
2018-11-05T21:53:51.172Z,100605.41
2018-11-05T21:56:20.347Z,100607.76
2018-11-05T21:58:49.751Z,100601.07
2018-11-05T22:01:18.839Z,100593.88
2018-11-05T22:03:48.834Z,100597.89
2018-11-05T22:06:18.155Z,100595.72
2018-11-05T22:08:46.969Z,100594.39
2018-11-05T22:11:16.034Z,100590.75
2018-11-05T22:13:46.410Z,100592.16
2018-11-05T22:16:15.232Z,100589.48
2018-11-05T22:18:44.252Z,100581.97
2018-11-05T22:21:13.506Z,100580.23
2018-11-05T22:23:42.499Z,100584.38
2018-11-05T22:26:11.677Z,100581.70
2018-11-05T22:28:41.202Z,100587.38
2018-11-05T22:31:10.007Z,100578.66
2018-11-05T22:33:39.255Z,100578.66
2018-11-05T22:36:08.437Z,100590.30
2018-11-05T22:38:37.641Z,100587.58
2018-11-05T22:41:07.314Z,100581.50
2018-11-05T22:43:36.233Z,100582.73
2018-11-05T22:46:05.044Z,100584.58
2018-11-05T22:48:33.807Z,100587.62
2018-11-05T22:51:02.628Z,100588.91
2018-11-05T22:53:31.831Z,100588.41
2018-11-05T22:56:01.117Z,100587.25
2018-11-05T22:58:30.436Z,100589.61
2018-11-05T23:01:06.215Z,100579.92
2018-11-05T23:03:35.342Z,100582.59
2018-11-05T23:06:04.269Z,100587.12
2018-11-05T23:08:33.183Z,100580.61
2018-11-05T23:11:02.049Z,100578.66
2018-11-05T23:13:30.930Z,100586.28
2018-11-05T23:15:59.812Z,100587.70
2018-11-05T23:18:28.647Z,100591.64
2018-11-05T23:20:57.838Z,100585.13
2018-11-05T23:23:27.008Z,100581.34
2018-11-05T23:25:56.022Z,100582.59
2018-11-05T23:28:25.236Z,100577.25
2018-11-05T23:30:54.126Z,100578.91
2018-11-05T23:33:23.309Z,100580.00
2018-11-05T23:35:52.124Z,100569.63
2018-11-05T23:38:21.171Z,100567.64
2018-11-05T23:40:50.130Z,100567.97
2018-11-05T23:43:19.006Z,100571.77
2018-11-05T23:45:48.942Z,100574.01
2018-11-05T23:48:19.128Z,100566.81
2018-11-05T23:50:48.002Z,100568.41
2018-11-05T23:53:17.094Z,100571.45
2018-11-05T23:55:45.975Z,100573.63
2018-11-05T23:58:15.049Z,100574.82
